Time;durP1;ratioP1;P1;durP2;ratioP2;P2;SDS_P1;SDS_P2;PMS_P1;PMS_P2;Temp;Humidity;BMP_temperature;BMP_pressure;BME280_temperature;BME280_humidity;BME280_pressure;Samples;Min_cycle;Max_cycle;Signal;HPM_P1;HPM_P2
2022/09/13 00:00:32;;;;;;;;;;;21.80;64.50;;;;;;5091483;28;20419;-68
2022/09/13 00:02:57;;;;;;;;;;;21.80;64.50;;;;;;5091316;28;19934;-68
2022/09/13 00:05:23;;;;;;;;;;;21.80;64.50;;;;;;5091475;28;19923;-68
2022/09/13 00:07:48;;;;;;;;;;;21.80;64.60;;;;;;5091268;28;19916;-68
2022/09/13 00:10:14;;;;;;;;;;;21.80;64.50;;;;;;5092570;28;19923;-68
2022/09/13 00:12:40;;;;;;;;;;;21.80;64.60;;;;;;5092729;28;19930;-68
2022/09/13 00:15:05;;;;;;;;;;;21.80;64.60;;;;;;5091596;28;19922;-68
2022/09/13 00:17:31;;;;;;;;;;;21.80;64.60;;;;;;5091263;28;19920;-68
2022/09/13 00:19:56;;;;;;;;;;;21.80;64.60;;;;;;5091513;28;19916;-68
2022/09/13 00:22:22;;;;;;;;;;;21.80;64.60;;;;;;5091104;28;19921;-68
2022/09/13 00:24:47;;;;;;;;;;;21.80;64.70;;;;;;5091324;28;19924;-68
2022/09/13 00:27:13;;;;;;;;;;;21.70;64.70;;;;;;5092466;28;20389;-68
2022/09/13 00:29:38;;;;;;;;;;;21.70;64.70;;;;;;5091100;28;19920;-68
2022/09/13 00:32:04;;;;;;;;;;;21.70;64.70;;;;;;5091310;28;19936;-69
2022/09/13 00:34:30;;;;;;;;;;;21.70;64.80;;;;;;5091068;28;20383;-68
2022/09/13 00:36:55;;;;;;;;;;;21.70;64.80;;;;;;5092406;28;19916;-68
2022/09/13 00:39:21;;;;;;;;;;;21.70;64.80;;;;;;5092272;28;19922;-68
2022/09/13 00:41:47;;;;;;;;;;;21.70;64.90;;;;;;5090865;28;20266;-69
2022/09/13 00:44:32;;;;;;;;;;;21.70;64.80;;;;;;5092387;28;19991;-69
2022/09/13 00:46:58;;;;;;;;;;;21.70;64.90;;;;;;5091132;28;19965;-69
2022/09/13 00:49:35;;;;;;;;;;;21.70;65.00;;;;;;5091249;28;20006;-69
2022/09/13 00:52:04;;;;;;;;;;;21.70;65.00;;;;;;5092232;28;19920;-68
2022/09/13 00:54:34;;;;;;;;;;;21.70;65.00;;;;;;5092192;28;20282;-69
2022/09/13 00:57:01;;;;;;;;;;;21.70;65.00;;;;;;5124963;28;19930;-69
2022/09/13 00:59:29;;;;;;;;;;;21.70;65.00;;;;;;5091133;28;19916;-68
2022/09/13 01:01:56;;;;;;;;;;;21.70;65.00;;;;;;5091005;28;19920;-69
2022/09/13 01:04:24;;;;;;;;;;;21.70;65.10;;;;;;5092179;28;19920;-69
2022/09/13 01:06:51;;;;;;;;;;;21.70;65.10;;;;;;5091106;28;20267;-68
2022/09/13 01:09:16;;;;;;;;;;;21.70;65.10;;;;;;5093710;28;19916;-68
2022/09/13 01:11:54;;;;;;;;;;;21.60;65.10;;;;;;5095907;28;20077;-69
2022/09/13 01:14:21;;;;;;;;;;;21.70;65.20;;;;;;5094562;28;19920;-69
2022/09/13 01:16:47;;;;;;;;;;;21.60;65.10;;;;;;5094614;28;19923;-69
2022/09/13 01:19:12;;;;;;;;;;;21.60;65.10;;;;;;5094470;28;19916;-69
2022/09/13 01:36:02;;;;;;;;;;;21.60;65.30;;;;;;5110319;27;19908;-69
2022/09/13 01:38:48;;;;;;;;;;;21.60;65.30;;;;;;5092109;28;19923;-68
2022/09/13 01:44:13;;;;;;;;;;;21.60;65.40;;;;;;5090072;28;19909;-68
2022/09/13 01:49:29;;;;;;;;;;;21.60;65.40;;;;;;5089962;28;19918;-68
2022/09/13 01:52:15;;;;;;;;;;;21.60;65.40;;;;;;5089012;28;19923;-68
2022/09/13 02:00:08;;;;;;;;;;;21.50;65.40;;;;;;5089941;28;19908;-68
2022/09/13 02:02:38;;;;;;;;;;;21.60;65.50;;;;;;5088585;28;19924;-68
2022/09/13 02:05:08;;;;;;;;;;;21.50;65.50;;;;;;5088948;28;20003;-69
2022/09/13 02:07:39;;;;;;;;;;;21.50;65.50;;;;;;5089848;28;19942;-68
2022/09/13 02:10:08;;;;;;;;;;;21.50;65.50;;;;;;5088555;28;19973;-68
2022/09/13 02:12:35;;;;;;;;;;;21.50;65.50;;;;;;5088445;28;19969;-68
2022/09/13 02:15:06;;;;;;;;;;;21.50;65.50;;;;;;5088540;28;20003;-68
2022/09/13 02:17:35;;;;;;;;;;;21.50;65.60;;;;;;5089831;28;19916;-69
2022/09/13 02:20:04;;;;;;;;;;;21.50;65.60;;;;;;5088644;28;19916;-68
2022/09/13 02:22:35;;;;;;;;;;;21.50;65.60;;;;;;5089477;28;19923;-68
2022/09/13 02:25:03;;;;;;;;;;;21.50;65.60;;;;;;5088625;28;19971;-69
2022/09/13 02:27:32;;;;;;;;;;;21.50;65.70;;;;;;5089493;28;19966;-70
2022/09/13 02:30:00;;;;;;;;;;;21.50;65.70;;;;;;5089611;28;19917;-68
2022/09/13 02:32:29;;;;;;;;;;;21.50;65.70;;;;;;5089458;28;20342;-69
2022/09/13 02:35:13;;;;;;;;;;;21.50;65.70;;;;;;5089359;28;19945;-69
2022/09/13 02:37:40;;;;;;;;;;;21.50;65.70;;;;;;5087920;28;19923;-68
2022/09/13 02:40:08;;;;;;;;;;;21.50;65.70;;;;;;5088307;28;19943;-69
2022/09/13 02:42:40;;;;;;;;;;;21.50;65.70;;;;;;5089334;28;20271;-68
2022/09/13 02:45:07;;;;;;;;;;;21.50;65.80;;;;;;5087921;28;20364;-69
2022/09/13 02:55:58;;;;;;;;;;;21.50;65.80;;;;;;5090011;28;19908;-69
2022/09/13 02:58:36;;;;;;;;;;;21.50;65.80;;;;;;5088759;28;20025;-68
2022/09/13 03:01:02;;;;;;;;;;;21.50;65.80;;;;;;5088592;28;19917;-68
2022/09/13 03:03:28;;;;;;;;;;;21.50;65.80;;;;;;5088837;28;19917;-68
2022/09/13 03:05:53;;;;;;;;;;;21.40;65.80;;;;;;5088810;28;19916;-68
2022/09/13 03:08:20;;;;;;;;;;;21.40;65.80;;;;;;5088726;28;19916;-70
2022/09/13 03:10:51;;;;;;;;;;;21.50;65.80;;;;;;5088714;28;19917;-68
2022/09/13 03:16:09;;;;;;;;;;;21.40;65.90;;;;;;5110611;27;19908;-68
2022/09/13 03:18:40;;;;;;;;;;;21.40;65.80;;;;;;5109000;28;19916;-68
2022/09/13 03:21:17;;;;;;;;;;;21.50;65.90;;;;;;5109526;28;19916;-68
2022/09/13 03:32:02;;;;;;;;;;;21.40;65.90;;;;;;5110293;27;19908;-68
2022/09/13 03:37:17;;;;;;;;;;;21.40;66.00;;;;;;5090037;28;19909;-68
2022/09/13 03:39:46;;;;;;;;;;;21.40;65.90;;;;;;5088892;28;19982;-69
2022/09/13 03:42:17;;;;;;;;;;;21.40;66.00;;;;;;5088946;28;19924;-68
2022/09/13 03:44:45;;;;;;;;;;;21.50;66.80;;;;;;5088820;28;20271;-68
2022/09/13 03:47:11;;;;;;;;;;;21.40;66.00;;;;;;5088879;28;19922;-68
2022/09/13 03:49:37;;;;;;;;;;;21.40;66.00;;;;;;5088599;28;19917;-68
2022/09/13 03:52:03;;;;;;;;;;;21.40;66.00;;;;;;5088816;28;19947;-68
2022/09/13 03:54:31;;;;;;;;;;;21.40;66.00;;;;;;5089648;28;19923;-68
2022/09/13 03:57:16;;;;;;;;;;;21.40;66.00;;;;;;5089605;28;20267;-68
2022/09/13 03:59:44;;;;;;;;;;;21.40;66.00;;;;;;5089450;28;19916;-68
2022/09/13 04:02:10;;;;;;;;;;;21.40;66.00;;;;;;5089656;28;20420;-69
2022/09/13 04:04:36;;;;;;;;;;;21.40;66.00;;;;;;5088864;28;19999;-68
2022/09/13 04:07:03;;;;;;;;;;;21.40;66.10;;;;;;5089626;28;20271;-68
2022/09/13 04:09:29;;;;;;;;;;;21.40;66.10;;;;;;5088347;28;19923;-68
2022/09/13 04:11:55;;;;;;;;;;;21.40;66.10;;;;;;5088022;28;20003;-68
2022/09/13 04:14:21;;;;;;;;;;;21.40;66.10;;;;;;5088354;28;20003;-68
2022/09/13 04:16:46;;;;;;;;;;;21.40;66.10;;;;;;5087914;28;19925;-68
2022/09/13 04:19:12;;;;;;;;;;;21.40;66.20;;;;;;5088226;28;20322;-68
2022/09/13 04:21:38;;;;;;;;;;;21.40;66.10;;;;;;5088138;28;20271;-68
2022/09/13 04:24:03;;;;;;;;;;;21.40;66.10;;;;;;5088123;28;19916;-68
2022/09/13 04:26:29;;;;;;;;;;;21.40;66.20;;;;;;5087731;28;20346;-68
2022/09/13 04:28:54;;;;;;;;;;;21.40;66.10;;;;;;5087795;28;19916;-68
2022/09/13 04:31:20;;;;;;;;;;;21.40;66.10;;;;;;5087566;28;19923;-68
2022/09/13 04:33:45;;;;;;;;;;;21.40;66.20;;;;;;5088138;28;19916;-68
2022/09/13 04:36:11;;;;;;;;;;;21.40;66.20;;;;;;5101236;28;19973;-68
2022/09/13 04:38:36;;;;;;;;;;;21.40;66.10;;;;;;5090966;28;19916;-68
2022/09/13 04:41:02;;;;;;;;;;;21.30;66.10;;;;;;5108960;28;19968;-68
2022/09/13 04:43:28;;;;;;;;;;;21.40;66.20;;;;;;5109046;28;19965;-68
2022/09/13 04:45:53;;;;;;;;;;;21.40;66.20;;;;;;5109002;28;19928;-68
2022/09/13 04:48:19;;;;;;;;;;;21.30;66.10;;;;;;5096158;28;19970;-68
2022/09/13 04:50:44;;;;;;;;;;;21.40;66.20;;;;;;5060609;28;20324;-68
2022/09/13 04:53:10;;;;;;;;;;;21.30;66.10;;;;;;5095326;28;19916;-68
2022/09/13 04:55:36;;;;;;;;;;;21.30;66.10;;;;;;5095215;28;19926;-68
2022/09/13 04:58:02;;;;;;;;;;;21.30;66.20;;;;;;5077218;28;19920;-68
2022/09/13 05:00:28;;;;;;;;;;;21.30;66.20;;;;;;5095275;28;19923;-68
2022/09/13 05:02:55;;;;;;;;;;;21.30;66.20;;;;;;5077219;28;19920;-68
2022/09/13 05:05:21;;;;;;;;;;;21.30;66.90;;;;;;5095085;28;19916;-68
2022/09/13 05:07:49;;;;;;;;;;;21.30;66.20;;;;;;5094998;28;20256;-69
2022/09/13 05:10:14;;;;;;;;;;;21.30;66.20;;;;;;5093733;28;19916;-68
2022/09/13 05:12:40;;;;;;;;;;;21.30;66.20;;;;;;5076962;28;19950;-68
2022/09/13 05:15:06;;;;;;;;;;;21.30;66.20;;;;;;5094819;28;20267;-68
2022/09/13 05:17:31;;;;;;;;;;;21.30;66.20;;;;;;5094720;28;19962;-68
2022/09/13 05:19:57;;;;;;;;;;;21.30;66.20;;;;;;5076652;28;19946;-68
2022/09/13 05:22:22;;;;;;;;;;;21.30;66.30;;;;;;5076806;28;19942;-68
2022/09/13 05:24:48;;;;;;;;;;;21.30;66.20;;;;;;5094737;28;19916;-68
2022/09/13 05:27:13;;;;;;;;;;;21.40;66.30;;;;;;5076816;28;20367;-68
2022/09/13 05:29:39;;;;;;;;;;;21.30;66.20;;;;;;5076392;28;19920;-68
2022/09/13 05:32:04;;;;;;;;;;;21.30;66.20;;;;;;5093226;28;19924;-70
2022/09/13 05:34:30;;;;;;;;;;;21.30;66.30;;;;;;5075380;28;19959;-68
2022/09/13 05:36:56;;;;;;;;;;;21.30;66.30;;;;;;5075586;28;19928;-68
2022/09/13 05:39:21;;;;;;;;;;;21.30;66.20;;;;;;5094272;28;19972;-68
2022/09/13 05:41:47;;;;;;;;;;;21.30;66.30;;;;;;5074969;28;19924;-70
2022/09/13 05:44:13;;;;;;;;;;;21.30;66.40;;;;;;5073883;28;19920;-69
2022/09/13 05:46:38;;;;;;;;;;;21.30;66.90;;;;;;5074848;28;20595;-69
2022/09/13 05:49:04;;;;;;;;;;;21.30;67.20;;;;;;5068914;28;19920;-68
2022/09/13 05:51:30;;;;;;;;;;;21.30;67.50;;;;;;5073206;28;19923;-69
2022/09/13 05:53:56;;;;;;;;;;;21.40;68.50;;;;;;5091931;28;20010;-67
2022/09/13 05:56:23;;;;;;;;;;;21.40;68.80;;;;;;5091146;28;19981;-68
2022/09/13 05:58:49;;;;;;;;;;;21.40;69.00;;;;;;5079569;28;20180;-67
2022/09/13 06:01:17;;;;;;;;;;;21.40;69.40;;;;;;5088809;28;19927;-67
2022/09/13 06:03:42;;;;;;;;;;;21.40;69.90;;;;;;5077203;28;19934;-67
2022/09/13 06:06:09;;;;;;;;;;;21.40;70.10;;;;;;5078075;28;20389;-67
2022/09/13 06:08:34;;;;;;;;;;;21.40;70.00;;;;;;5071291;28;20904;-67
2022/09/13 06:11:02;;;;;;;;;;;21.40;70.10;;;;;;5073712;28;20351;-67
2022/09/13 06:13:28;;;;;;;;;;;21.40;69.90;;;;;;5088111;28;20145;-67
2022/09/13 06:15:54;;;;;;;;;;;21.40;69.80;;;;;;5077649;28;20016;-67
2022/09/13 06:18:20;;;;;;;;;;;21.40;69.90;;;;;;5061185;28;20462;-67
2022/09/13 06:20:46;;;;;;;;;;;21.50;70.20;;;;;;5040067;28;19950;-68
2022/09/13 06:23:12;;;;;;;;;;;21.50;70.00;;;;;;5075978;28;20304;-68
2022/09/13 06:25:37;;;;;;;;;;;21.50;70.00;;;;;;5073400;28;19929;-68
2022/09/13 06:28:03;;;;;;;;;;;21.50;69.90;;;;;;5051955;28;19924;-69
2022/09/13 06:30:29;;;;;;;;;;;21.50;70.00;;;;;;5058640;28;19928;-69
2022/09/13 06:32:55;;;;;;;;;;;21.50;70.00;;;;;;5066821;28;21855;-69
2022/09/13 06:35:20;;;;;;;;;;;21.60;70.00;;;;;;5075294;28;20392;-69
2022/09/13 06:37:46;;;;;;;;;;;21.50;70.00;;;;;;5074679;28;19930;-69
2022/09/13 06:40:12;;;;;;;;;;;21.50;70.00;;;;;;5055247;28;19936;-69
2022/09/13 06:42:38;;;;;;;;;;;21.60;70.10;;;;;;5071415;28;19924;-69
2022/09/13 06:45:04;;;;;;;;;;;21.60;70.30;;;;;;5072024;28;19920;-68
2022/09/13 06:47:29;;;;;;;;;;;21.60;70.50;;;;;;5054889;28;20277;-69
2022/09/13 06:49:55;;;;;;;;;;;21.60;70.30;;;;;;5074102;28;19977;-69
2022/09/13 06:52:20;;;;;;;;;;;21.60;70.50;;;;;;5052674;28;20367;-68
2022/09/13 06:54:46;;;;;;;;;;;21.70;70.70;;;;;;5074067;28;20422;-68
2022/09/13 06:57:12;;;;;;;;;;;21.70;71.00;;;;;;5056995;28;19924;-67
2022/09/13 06:59:37;;;;;;;;;;;21.70;71.20;;;;;;5055883;28;20115;-67
2022/09/13 07:02:03;;;;;;;;;;;21.70;71.10;;;;;;5077031;28;19924;-70
2022/09/13 07:04:30;;;;;;;;;;;21.80;71.20;;;;;;5056228;28;19928;-68
2022/09/13 07:06:56;;;;;;;;;;;21.80;71.30;;;;;;5074770;28;19969;-71
2022/09/13 07:09:22;;;;;;;;;;;21.80;71.30;;;;;;5071146;28;20352;-69
2022/09/13 07:11:49;;;;;;;;;;;21.90;71.10;;;;;;5054711;28;19931;-68
2022/09/13 07:14:16;;;;;;;;;;;21.90;70.90;;;;;;5058328;28;19932;-69
2022/09/13 07:16:42;;;;;;;;;;;21.90;70.80;;;;;;5061923;28;20031;-69
2022/09/13 07:19:12;;;;;;;;;;;21.90;70.40;;;;;;5061417;28;20677;-68
2022/09/13 07:21:38;;;;;;;;;;;21.90;70.60;;;;;;5070812;28;20497;-71
2022/09/13 07:24:03;;;;;;;;;;;21.90;70.60;;;;;;5071234;28;19963;-69
2022/09/13 07:26:30;;;;;;;;;;;22.00;70.50;;;;;;5071898;28;20361;-74
2022/09/13 07:28:57;;;;;;;;;;;22.00;70.50;;;;;;5057064;28;19924;-70
2022/09/13 07:31:25;;;;;;;;;;;22.00;70.40;;;;;;5074788;28;19920;-70
2022/09/13 07:33:53;;;;;;;;;;;22.00;70.50;;;;;;5071545;28;19924;-72
2022/09/13 07:36:18;;;;;;;;;;;22.00;70.50;;;;;;5054402;28;19925;-70
2022/09/13 07:38:44;;;;;;;;;;;22.10;70.30;;;;;;5058903;28;19924;-68
2022/09/13 07:41:12;;;;;;;;;;;22.10;70.50;;;;;;5051252;28;19928;-72
2022/09/13 07:43:38;;;;;;;;;;;22.10;70.20;;;;;;5072321;28;19931;-68
2022/09/13 07:46:05;;;;;;;;;;;22.10;70.40;;;;;;5070070;28;20766;-71
2022/09/13 07:48:31;;;;;;;;;;;22.10;70.40;;;;;;5071898;28;19935;-70
2022/09/13 07:50:57;;;;;;;;;;;22.10;70.60;;;;;;5070304;28;19928;-69
2022/09/13 07:53:23;;;;;;;;;;;22.10;70.30;;;;;;5071858;28;20941;-69
2022/09/13 07:55:49;;;;;;;;;;;22.10;70.40;;;;;;5054257;28;19924;-68
2022/09/13 07:58:14;;;;;;;;;;;22.20;70.30;;;;;;5053006;28;19924;-71
2022/09/13 08:00:40;;;;;;;;;;;22.10;70.30;;;;;;5073781;28;19924;-68
2022/09/13 08:03:06;;;;;;;;;;;22.20;70.30;;;;;;5054709;28;20287;-69
2022/09/13 08:05:32;;;;;;;;;;;22.30;70.40;;;;;;5072492;28;19924;-70
2022/09/13 08:07:57;;;;;;;;;;;22.20;70.20;;;;;;5054586;28;19931;-76
2022/09/13 08:10:23;;;;;;;;;;;22.20;70.00;;;;;;5075938;28;19927;-72
2022/09/13 08:12:48;;;;;;;;;;;22.20;70.00;;;;;;5064695;28;19963;-68
2022/09/13 08:15:14;;;;;;;;;;;22.20;70.10;;;;;;5074881;28;19974;-69
2022/09/13 08:17:39;;;;;;;;;;;22.30;70.20;;;;;;5058016;28;19928;-70
2022/09/13 08:20:05;;;;;;;;;;;22.30;70.10;;;;;;5055948;28;19924;-70
2022/09/13 08:22:30;;;;;;;;;;;22.30;70.10;;;;;;5059501;28;19928;-69
2022/09/13 08:24:56;;;;;;;;;;;22.30;70.10;;;;;;5058732;28;20425;-71
2022/09/13 08:27:21;;;;;;;;;;;22.40;70.00;;;;;;5059962;28;19924;-67
2022/09/13 08:29:47;;;;;;;;;;;22.40;69.90;;;;;;5075290;28;19924;-76
2022/09/13 08:32:13;;;;;;;;;;;22.40;69.90;;;;;;5078731;28;19935;-70
2022/09/13 08:34:38;;;;;;;;;;;22.40;69.90;;;;;;5057088;28;20060;-68
2022/09/13 08:37:04;;;;;;;;;;;22.40;69.80;;;;;;5074606;28;20315;-68
2022/09/13 08:39:30;;;;;;;;;;;22.40;69.60;;;;;;5056528;28;20032;-68
2022/09/13 08:42:02;;;;;;;;;;;22.40;69.60;;;;;;5058455;28;19924;-68
2022/09/13 08:44:31;;;;;;;;;;;22.40;69.70;;;;;;5054681;28;20035;-68
2022/09/13 08:49:41;;;;;;;;;;;22.30;69.60;;;;;;5054864;28;19924;-74
2022/09/13 08:52:15;;;;;;;;;;;22.30;70.00;;;;;;5054047;28;19924;-69
2022/09/13 08:54:41;;;;;;;;;;;22.40;70.10;;;;;;5051905;28;19928;-67
2022/09/13 09:02:47;;;;;;;;;;;22.50;70.10;;;;;;5076487;27;19920;-69
2022/09/13 09:05:16;;;;;;;;;;;22.40;70.00;;;;;;5055945;28;20031;-69
2022/09/13 09:07:45;;;;;;;;;;;22.50;70.20;;;;;;5042111;28;19920;-68
2022/09/13 09:10:14;;;;;;;;;;;22.50;70.00;;;;;;5050850;28;19920;-75
2022/09/13 09:12:45;;;;;;;;;;;22.50;70.10;;;;;;5072250;28;19928;-68
2022/09/13 09:15:14;;;;;;;;;;;22.50;69.90;;;;;;5068389;28;19939;-74
2022/09/13 09:17:46;;;;;;;;;;;22.50;69.80;;;;;;5044088;28;19929;-71
2022/09/13 09:23:17;;;;;;;;;;;22.50;69.80;;;;;;5090599;27;19920;-68
2022/09/13 09:25:43;;;;;;;;;;;22.50;69.60;;;;;;5073332;28;19932;-68
2022/09/13 09:28:13;;;;;;;;;;;22.50;69.60;;;;;;5073547;28;19923;-68
2022/09/13 09:30:58;;;;;;;;;;;22.50;69.50;;;;;;5072876;28;19924;-71
2022/09/13 09:33:31;;;;;;;;;;;22.60;69.50;;;;;;5075075;28;20465;-68
2022/09/13 09:36:03;;;;;;;;;;;22.50;69.60;;;;;;5072727;28;19924;-67
2022/09/13 09:38:40;;;;;;;;;;;22.60;69.60;;;;;;5076231;28;19937;-65
2022/09/13 09:46:50;;;;;;;;;;;22.60;69.10;;;;;;5062325;28;19924;-66
2022/09/13 09:52:06;;;;;;;;;;;22.60;69.10;;;;;;5081458;27;19916;-64
2022/09/13 09:54:32;;;;;;;;;;;22.70;69.20;;;;;;5038412;28;19928;-66
2022/09/13 09:56:58;;;;;;;;;;;22.70;69.00;;;;;;5042278;28;19931;-71
2022/09/13 09:59:25;;;;;;;;;;;22.70;69.30;;;;;;5051310;28;20011;-67
2022/09/13 10:01:52;;;;;;;;;;;22.80;69.00;;;;;;5058510;28;20472;-66
2022/09/13 10:04:20;;;;;;;;;;;22.80;68.90;;;;;;5057560;28;19927;-65
2022/09/13 10:06:47;;;;;;;;;;;22.80;68.80;;;;;;5057165;28;19936;-66
2022/09/13 10:11:52;;;;;;;;;;;22.90;68.60;;;;;;5114462;27;1856028;-68
2022/09/13 10:20:03;;;;;;;;;;;23.00;68.60;;;;;;5055444;28;19925;-67
2022/09/13 10:22:29;;;;;;;;;;;23.00;68.30;;;;;;5048872;28;19925;-66
2022/09/13 10:25:12;;;;;;;;;;;23.10;68.50;;;;;;5034778;28;19930;-66
2022/09/13 10:27:41;;;;;;;;;;;23.10;68.20;;;;;;5053975;28;19925;-64
2022/09/13 10:30:26;;;;;;;;;;;23.10;68.10;;;;;;5038560;28;19929;-65
2022/09/13 10:32:55;;;;;;;;;;;23.10;67.60;;;;;;5039764;28;19970;-67
2022/09/13 10:35:20;;;;;;;;;;;23.10;67.50;;;;;;5038482;28;19925;-68
2022/09/13 10:37:46;;;;;;;;;;;23.10;67.50;;;;;;5043300;28;19929;-63
2022/09/13 10:40:17;;;;;;;;;;;23.20;67.50;;;;;;5039891;28;20424;-65
2022/09/13 10:43:00;;;;;;;;;;;23.10;67.20;;;;;;5037839;28;19925;-63
2022/09/13 10:45:28;;;;;;;;;;;23.20;67.20;;;;;;5047403;28;20398;-63
2022/09/13 10:47:57;;;;;;;;;;;23.10;66.70;;;;;;5049535;28;20214;-66
2022/09/13 10:53:04;;;;;;;;;;;23.20;66.60;;;;;;5067088;28;19953;-66
2022/09/13 10:55:31;;;;;;;;;;;23.20;66.50;;;;;;5052901;28;19924;-66
2022/09/13 11:00:59;;;;;;;;;;;23.30;66.60;;;;;;5092012;27;1856835;-66
2022/09/13 11:06:26;;;;;;;;;;;23.40;65.80;;;;;;5070928;28;20395;-68
2022/09/13 11:08:57;;;;;;;;;;;23.40;64.90;;;;;;5068016;28;20039;-68
2022/09/13 11:14:26;;;;;;;;;;;23.40;65.10;;;;;;5096848;27;19931;-65
2022/09/13 11:30:20;;;;;;;;;;;23.30;64.80;;;;;;5072312;28;20376;-64
2022/09/13 11:35:46;;;;;;;;;;;23.30;64.50;;;;;;5068753;28;19921;-66
2022/09/13 11:38:31;;;;;;;;;;;23.20;63.80;;;;;;5056328;28;20455;-68
2022/09/13 11:41:02;;;;;;;;;;;23.20;63.80;;;;;;5055792;28;19925;-67
2022/09/13 11:43:36;;;;;;;;;;;23.20;63.40;;;;;;5056036;28;19929;-66
2022/09/13 11:46:05;;;;;;;;;;;23.20;63.50;;;;;;5058059;28;19951;-66
2022/09/13 11:48:51;;;;;;;;;;;23.20;63.70;;;;;;5057017;28;20265;-67
2022/09/13 11:51:24;;;;;;;;;;;23.20;63.00;;;;;;5052095;28;19936;-65
2022/09/13 11:53:55;;;;;;;;;;;23.20;63.40;;;;;;5085214;28;19924;-66
2022/09/13 11:56:25;;;;;;;;;;;23.20;63.40;;;;;;5050158;28;19925;-67
2022/09/13 11:58:52;;;;;;;;;;;23.20;63.20;;;;;;5054372;28;19948;-67
2022/09/13 12:01:21;;;;;;;;;;;23.20;63.60;;;;;;5055701;28;19924;-65
2022/09/13 12:04:05;;;;;;;;;;;23.20;63.80;;;;;;5054794;28;19947;-66
2022/09/13 12:06:34;;;;;;;;;;;23.20;63.70;;;;;;5056156;28;19924;-66
2022/09/13 12:09:06;;;;;;;;;;;23.20;63.80;;;;;;5050907;28;20255;-63
2022/09/13 12:11:35;;;;;;;;;;;23.20;63.90;;;;;;5048933;28;20032;-63
2022/09/13 12:14:03;;;;;;;;;;;23.20;64.00;;;;;;5038629;28;19970;-64
2022/09/13 12:16:33;;;;;;;;;;;23.30;64.20;;;;;;5080607;28;20238;-65
2022/09/13 12:19:00;;;;;;;;;;;23.30;64.10;;;;;;5048805;28;20023;-65
2022/09/13 12:21:31;;;;;;;;;;;23.30;64.40;;;;;;5081431;28;21283;-66
2022/09/13 12:24:01;;;;;;;;;;;23.30;64.50;;;;;;5051505;28;19924;-67
2022/09/13 12:29:28;;;;;;;;;;;23.40;65.00;;;;;;5053562;27;19931;-65
2022/09/13 12:31:57;;;;;;;;;;;23.40;65.10;;;;;;5051320;28;19954;-64
2022/09/13 12:34:28;;;;;;;;;;;23.40;65.10;;;;;;5051980;28;19928;-67
2022/09/13 12:37:00;;;;;;;;;;;23.50;65.30;;;;;;5044280;28;20563;-65
2022/09/13 12:39:42;;;;;;;;;;;23.50;65.00;;;;;;5046818;28;19968;-65
2022/09/13 12:47:39;;;;;;;;;;;23.50;64.80;;;;;;5136131;27;20405;-67
2022/09/13 12:50:18;;;;;;;;;;;23.50;62.40;;;;;;5112889;28;20446;-68
2022/09/13 12:53:04;;;;;;;;;;;23.40;63.10;;;;;;5115454;27;19923;-66
2022/09/13 12:55:50;;;;;;;;;;;23.50;63.10;;;;;;5113532;28;20402;-64
2022/09/13 12:58:36;;;;;;;;;;;23.40;60.70;;;;;;5105496;27;19970;-65
2022/09/13 13:04:09;;;;;;;;;;;23.30;61.40;;;;;;5063612;28;20453;-64
2022/09/13 13:06:37;;;;;;;;;;;23.30;61.50;;;;;;5058383;28;20054;-64
2022/09/13 13:09:06;;;;;;;;;;;23.30;61.10;;;;;;5066610;28;19920;-64
2022/09/13 13:11:47;;;;;;;;;;;23.30;61.00;;;;;;5060149;28;19925;-64
2022/09/13 13:14:33;;;;;;;;;;;23.30;60.90;;;;;;5058836;28;19929;-66
2022/09/13 13:17:18;;;;;;;;;;;23.30;61.00;;;;;;5055161;28;20011;-65
2022/09/13 13:19:44;;;;;;;;;;;23.40;61.50;;;;;;5052808;28;19921;-65
2022/09/13 13:22:29;;;;;;;;;;;23.40;61.60;;;;;;5059150;28;19939;-65
2022/09/13 13:24:55;;;;;;;;;;;23.40;61.40;;;;;;5060398;28;19920;-66
2022/09/13 13:27:37;;;;;;;;;;;23.40;60.60;;;;;;5059742;28;19929;-66
2022/09/13 13:30:23;;;;;;;;;;;23.40;60.70;;;;;;5057463;28;19928;-67
2022/09/13 13:33:08;;;;;;;;;;;23.40;60.70;;;;;;5061800;28;19921;-65
2022/09/13 13:35:34;;;;;;;;;;;23.40;60.50;;;;;;5060267;28;19925;-65
2022/09/13 13:38:19;;;;;;;;;;;23.40;60.00;;;;;;5060688;28;20014;-65
2022/09/13 13:40:49;;;;;;;;;;;23.40;59.80;;;;;;5059986;28;20420;-65
2022/09/13 13:43:27;;;;;;;;;;;23.40;59.50;;;;;;5059865;28;19941;-66
2022/09/13 13:45:57;;;;;;;;;;;23.40;59.40;;;;;;5058671;28;19925;-65
2022/09/13 13:48:38;;;;;;;;;;;23.40;59.40;;;;;;5055913;28;19964;-67
2022/09/13 13:53:54;;;;;;;;;;;23.40;58.60;;;;;;5104170;27;19947;-64
2022/09/13 13:56:23;;;;;;;;;;;23.40;58.40;;;;;;5083881;28;19927;-64
2022/09/13 13:59:09;;;;;;;;;;;23.40;58.20;;;;;;5084270;28;19924;-64
2022/09/13 14:01:35;;;;;;;;;;;23.30;58.00;;;;;;5082980;28;20391;-64
2022/09/13 14:07:05;;;;;;;;;;;23.30;57.60;;;;;;5084128;28;19916;-64
2022/09/13 14:09:37;;;;;;;;;;;23.20;57.60;;;;;;5078574;28;20039;-65
2022/09/13 14:12:15;;;;;;;;;;;23.20;57.70;;;;;;5062130;28;19928;-65
2022/09/13 14:17:48;;;;;;;;;;;23.20;58.10;;;;;;5124526;27;19912;-65
2022/09/13 14:20:17;;;;;;;;;;;23.20;58.20;;;;;;5125598;27;20011;-65
2022/09/13 14:22:42;;;;;;;;;;;23.10;58.20;;;;;;5108768;27;19919;-64
2022/09/13 14:25:24;;;;;;;;;;;23.10;58.40;;;;;;5104670;28;20011;-65
2022/09/13 14:27:53;;;;;;;;;;;23.10;58.50;;;;;;5108261;28;19926;-65
2022/09/13 14:30:21;;;;;;;;;;;23.10;58.60;;;;;;5126089;28;19972;-65
2022/09/13 14:32:48;;;;;;;;;;;23.00;58.70;;;;;;5126481;28;20313;-64
2022/09/13 14:35:34;;;;;;;;;;;23.00;58.80;;;;;;5125730;28;19923;-65
2022/09/13 14:38:19;;;;;;;;;;;23.00;59.00;;;;;;5126494;28;19920;-64
2022/09/13 14:40:49;;;;;;;;;;;23.00;59.00;;;;;;5106153;28;20003;-65
2022/09/13 14:43:19;;;;;;;;;;;23.00;59.10;;;;;;5127539;27;19974;-65
2022/09/13 14:45:47;;;;;;;;;;;22.90;59.20;;;;;;5103311;28;19920;-65
2022/09/13 14:50:57;;;;;;;;;;;22.90;59.30;;;;;;5084141;28;19923;-65
2022/09/13 14:53:25;;;;;;;;;;;22.90;59.30;;;;;;5083773;28;19966;-66
2022/09/13 14:55:52;;;;;;;;;;;22.90;59.40;;;;;;5085543;28;19928;-66
2022/09/13 14:58:21;;;;;;;;;;;22.90;59.40;;;;;;5086336;28;19920;-70
2022/09/13 15:00:49;;;;;;;;;;;22.90;59.40;;;;;;5083865;28;19951;-66
2022/09/13 15:03:15;;;;;;;;;;;22.90;59.60;;;;;;5085226;28;19967;-65
2022/09/13 15:05:41;;;;;;;;;;;22.90;60.30;;;;;;5085861;28;19970;-65
2022/09/13 15:08:26;;;;;;;;;;;22.90;59.60;;;;;;5085699;28;19968;-65
2022/09/13 15:10:55;;;;;;;;;;;22.90;59.70;;;;;;5084502;28;20277;-66
2022/09/13 15:13:21;;;;;;;;;;;22.80;59.60;;;;;;5083933;28;19926;-66
2022/09/13 15:15:46;;;;;;;;;;;22.80;59.70;;;;;;5086451;28;19924;-66
2022/09/13 15:21:02;;;;;;;;;;;22.80;59.80;;;;;;5107197;27;19916;-65
2022/09/13 15:23:34;;;;;;;;;;;22.80;59.70;;;;;;5071880;28;19927;-65
2022/09/13 15:26:02;;;;;;;;;;;22.80;59.80;;;;;;5068250;28;20009;-65
2022/09/13 15:28:30;;;;;;;;;;;22.80;59.80;;;;;;5086295;28;19942;-65
2022/09/13 15:30:57;;;;;;;;;;;22.80;59.80;;;;;;5069193;28;19921;-65
2022/09/13 15:33:25;;;;;;;;;;;22.80;59.80;;;;;;5087328;28;20374;-65
2022/09/13 15:35:52;;;;;;;;;;;22.80;59.80;;;;;;5070676;28;19943;-64
2022/09/13 15:41:01;;;;;;;;;;;22.80;60.00;;;;;;5088137;28;20372;-65
2022/09/13 15:43:26;;;;;;;;;;;22.80;59.90;;;;;;5103878;28;19928;-65
2022/09/13 15:45:52;;;;;;;;;;;22.80;60.00;;;;;;5087271;28;19920;-65
2022/09/13 15:48:23;;;;;;;;;;;22.80;60.00;;;;;;5087025;28;19946;-65
2022/09/13 15:51:02;;;;;;;;;;;22.80;60.00;;;;;;5086842;28;19920;-65
2022/09/13 15:53:28;;;;;;;;;;;22.80;60.00;;;;;;5087462;28;19927;-65
2022/09/13 15:55:54;;;;;;;;;;;22.80;60.00;;;;;;5087331;28;19920;-65
2022/09/13 15:58:19;;;;;;;;;;;22.80;60.00;;;;;;5087197;28;19960;-65
2022/09/13 16:00:45;;;;;;;;;;;22.80;60.00;;;;;;5085816;28;19925;-65
2022/09/13 16:03:10;;;;;;;;;;;22.80;60.10;;;;;;5087604;28;19921;-65
2022/09/13 16:05:36;;;;;;;;;;;22.80;60.10;;;;;;5088073;28;19963;-65
2022/09/13 16:08:01;;;;;;;;;;;22.80;60.10;;;;;;5086908;28;19927;-65
2022/09/13 16:10:27;;;;;;;;;;;22.80;60.10;;;;;;5087655;28;19925;-65
2022/09/13 16:12:53;;;;;;;;;;;22.80;60.10;;;;;;5078835;28;19921;-65
2022/09/13 16:15:19;;;;;;;;;;;22.70;60.10;;;;;;5074573;28;19920;-65
2022/09/13 16:17:45;;;;;;;;;;;22.80;60.20;;;;;;5087919;28;20249;-64
2022/09/13 16:20:11;;;;;;;;;;;22.80;60.20;;;;;;5087625;28;19932;-65
2022/09/13 16:22:37;;;;;;;;;;;22.80;59.90;;;;;;5086437;28;19998;-65
2022/09/13 16:25:03;;;;;;;;;;;22.80;59.50;;;;;;5085002;28;20359;-65
2022/09/13 16:27:29;;;;;;;;;;;22.80;59.30;;;;;;5084715;28;20007;-66
2022/09/13 16:29:54;;;;;;;;;;;22.80;59.10;;;;;;5081421;28;20047;-65
2022/09/13 16:32:20;;;;;;;;;;;22.80;59.00;;;;;;5087443;28;20368;-65
2022/09/13 16:34:46;;;;;;;;;;;22.80;58.70;;;;;;5087713;28;20353;-65
2022/09/13 16:37:14;;;;;;;;;;;22.80;58.70;;;;;;5086531;28;20018;-66